createdAt,value
2023-04-11T00:01:01.290Z,32.37
2023-04-11T00:03:07.288Z,32.45
2023-04-11T00:05:12.524Z,32.62
2023-04-11T00:07:17.549Z,32.69
2023-04-11T00:09:22.605Z,32.85
2023-04-11T00:11:27.767Z,32.81
2023-04-11T00:13:32.856Z,32.9
2023-04-11T00:15:37.921Z,32.9
2023-04-11T00:17:43.212Z,32.9
2023-04-11T00:19:48.294Z,32.85
2023-04-11T00:21:53.341Z,32.84
2023-04-11T00:23:58.410Z,33.04
2023-04-11T00:26:03.611Z,33.07
2023-04-11T00:28:08.699Z,33.1
2023-04-11T00:30:13.842Z,33.12
2023-04-11T00:32:18.948Z,33.16
2023-04-11T00:34:23.985Z,32.94
2023-04-11T00:36:29.416Z,32.91
2023-04-11T00:38:34.531Z,32.97
2023-04-11T00:40:39.617Z,32.92
2023-04-11T00:42:44.754Z,32.83
2023-04-11T00:44:49.765Z,32.76
2023-04-11T00:46:54.823Z,32.75
2023-04-11T00:49:00.361Z,32.81
2023-04-11T00:51:05.386Z,32.83
2023-04-11T00:53:10.397Z,32.76
2023-04-11T00:55:15.462Z,32.76
2023-04-11T00:57:20.494Z,32.71
2023-04-11T00:59:25.538Z,32.63
2023-04-11T01:01:30.842Z,32.65
2023-04-11T01:03:36.389Z,32.67
2023-04-11T01:05:41.626Z,32.5
2023-04-11T01:07:46.784Z,32.5
2023-04-11T01:09:51.976Z,32.59
2023-04-11T01:11:57.051Z,32.46
2023-04-11T01:14:02.051Z,32.32
2023-04-11T01:16:07.128Z,32.32
2023-04-11T01:18:12.306Z,32.45
2023-04-11T01:20:17.382Z,32.39
2023-04-11T01:22:22.448Z,32.19
2023-04-11T01:24:27.526Z,32.15
2023-04-11T01:26:32.679Z,32.09
2023-04-11T01:28:37.734Z,32.06
2023-04-11T01:30:42.950Z,32.08
2023-04-11T01:32:48.297Z,31.99
2023-04-11T01:34:53.353Z,32.03
2023-04-11T01:36:58.375Z,31.99
2023-04-11T01:39:03.398Z,32
2023-04-11T01:41:08.466Z,31.99
2023-04-11T01:43:13.629Z,32.09
2023-04-11T01:45:18.699Z,32
2023-04-11T01:47:24.003Z,32.02
2023-04-11T01:49:29.066Z,32.16
2023-04-11T01:51:34.160Z,32.03
2023-04-11T01:53:39.316Z,31.98
2023-04-11T01:55:44.339Z,31.97
2023-04-11T01:57:49.447Z,31.93
2023-04-11T01:59:54.503Z,31.89
2023-04-11T02:01:59.973Z,31.88
2023-04-11T02:04:05.404Z,31.86
2023-04-11T02:06:10.490Z,31.87
2023-04-11T02:08:15.564Z,31.87
2023-04-11T02:10:20.567Z,31.92
2023-04-11T02:12:25.629Z,31.97
2023-04-11T02:14:30.721Z,31.91
2023-04-11T02:16:35.740Z,31.88
2023-04-11T02:18:40.839Z,31.86
2023-04-11T02:20:45.976Z,31.84
2023-04-11T02:22:51.003Z,31.83
2023-04-11T02:24:56.070Z,31.81
2023-04-11T02:27:01.106Z,31.88
2023-04-11T02:29:06.157Z,31.9
2023-04-11T02:31:11.591Z,31.82
2023-04-11T02:33:16.752Z,31.75
2023-04-11T02:35:21.954Z,31.75
2023-04-11T02:37:26.986Z,31.69
2023-04-11T02:39:32.000Z,31.73
2023-04-11T02:41:37.057Z,31.71
2023-04-11T02:43:42.134Z,31.68
2023-04-11T02:45:47.218Z,31.7
2023-04-11T02:47:52.444Z,31.66
2023-04-11T02:49:57.568Z,31.61
2023-04-11T02:52:02.600Z,31.58
2023-04-11T02:54:07.678Z,31.6
2023-04-11T02:56:12.702Z,31.6
2023-04-11T02:58:17.800Z,31.66
2023-04-11T03:00:23.117Z,31.58
2023-04-11T03:02:28.970Z,31.6
2023-04-11T03:04:34.532Z,31.54
2023-04-11T03:06:39.642Z,31.53
2023-04-11T03:08:44.677Z,31.42
2023-04-11T03:10:49.764Z,31.42
2023-04-11T03:12:54.858Z,31.49
2023-04-11T03:14:59.935Z,31.42
2023-04-11T03:17:05.011Z,31.42
2023-04-11T03:19:10.017Z,31.44
2023-04-11T03:21:15.148Z,31.37
2023-04-11T03:23:20.144Z,31.37
2023-04-11T03:25:25.239Z,31.33
2023-04-11T03:27:30.346Z,31.38
2023-04-11T03:29:35.343Z,31.39
2023-04-11T03:31:40.508Z,31.32
2023-04-11T03:33:45.503Z,31.21
2023-04-11T03:35:50.630Z,31.21
2023-04-11T03:37:55.633Z,31.25
2023-04-11T03:40:00.718Z,31.21
2023-04-11T03:42:05.705Z,31.18
2023-04-11T03:44:10.773Z,31.17
2023-04-11T03:46:22.204Z,31.21
2023-04-11T03:48:27.196Z,31.13
2023-04-11T03:50:32.305Z,31.13
2023-04-11T03:52:37.397Z,31.15
2023-04-11T03:54:42.502Z,31.15
2023-04-11T03:56:47.509Z,31.14
2023-04-11T03:58:52.603Z,31.11
2023-04-11T04:00:57.621Z,31.14
2023-04-11T04:03:03.327Z,31.14
2023-04-11T04:05:09.004Z,31.13
2023-04-11T04:07:14.208Z,31.17
2023-04-11T04:09:19.281Z,31.16
2023-04-11T04:11:24.275Z,31.17
2023-04-11T04:13:29.293Z,31.18
2023-04-11T04:15:34.294Z,31.23
2023-04-11T04:17:39.409Z,31.26
2023-04-11T04:19:44.443Z,31.25
2023-04-11T04:21:49.508Z,31.31
2023-04-11T04:23:54.935Z,31.25
2023-04-11T04:26:00.126Z,31.27
2023-04-11T04:28:05.175Z,31.28
2023-04-11T04:30:10.142Z,31.33
2023-04-11T04:32:15.187Z,31.3
2023-04-11T04:34:20.172Z,31.35
2023-04-11T04:36:25.144Z,31.26
2023-04-11T04:38:30.304Z,31.28
2023-04-11T04:40:35.304Z,31.31
2023-04-11T04:42:40.357Z,31.31
2023-04-11T04:44:45.372Z,31.28
2023-04-11T04:46:50.327Z,31.27
2023-04-11T04:48:55.363Z,31.3
2023-04-11T04:51:00.478Z,31.35
2023-04-11T04:53:05.497Z,31.4
2023-04-11T04:55:10.554Z,31.41
2023-04-11T04:57:15.551Z,31.42
2023-04-11T04:59:20.537Z,31.45
2023-04-11T05:01:25.673Z,31.41
2023-04-11T05:03:31.346Z,31.48
2023-04-11T05:05:36.367Z,31.42
2023-04-11T05:07:41.348Z,31.41
2023-04-11T05:09:46.365Z,31.46
2023-04-11T05:11:51.419Z,31.4
2023-04-11T05:13:57.457Z,31.41
2023-04-11T05:16:02.721Z,31.41
2023-04-11T05:18:07.990Z,31.4
2023-04-11T05:20:13.075Z,31.42
2023-04-11T05:22:18.135Z,31.46
2023-04-11T05:24:23.121Z,31.47
2023-04-11T05:26:28.147Z,31.49
2023-04-11T05:28:33.173Z,31.57
2023-04-11T05:30:38.290Z,31.51
2023-04-11T05:32:43.606Z,31.56
2023-04-11T05:34:48.743Z,31.5
2023-04-11T05:36:53.825Z,31.54
2023-04-11T05:38:58.811Z,31.41
2023-04-11T05:41:03.888Z,31.43
2023-04-11T05:43:08.942Z,31.42
2023-04-11T05:45:14.178Z,31.43
2023-04-11T05:47:19.289Z,31.44
2023-04-11T05:49:24.323Z,31.42
2023-04-11T05:51:29.404Z,31.43
2023-04-11T05:53:34.553Z,31.38
2023-04-11T05:55:39.559Z,31.34
2023-04-11T05:57:44.621Z,31.34
2023-04-11T05:59:49.615Z,31.35
2023-04-11T06:01:54.755Z,31.67
2023-04-11T06:04:01.364Z,31.35
2023-04-11T06:06:06.884Z,31.28
2023-04-11T06:08:11.868Z,31.29
2023-04-11T06:10:16.945Z,31.23
2023-04-11T06:12:21.977Z,31.27
2023-04-11T06:14:26.936Z,31.32
2023-04-11T06:16:32.050Z,31.24
2023-04-11T06:18:37.299Z,31.28
2023-04-11T06:20:42.316Z,31.29
2023-04-11T06:22:47.306Z,31.23
2023-04-11T06:24:52.280Z,31.37
2023-04-11T06:26:57.283Z,31.26
2023-04-11T06:29:02.290Z,31.3
2023-04-11T06:31:07.579Z,31.24
2023-04-11T06:33:12.981Z,31.26
2023-04-11T06:35:17.965Z,31.26
2023-04-11T06:37:22.943Z,31.25
2023-04-11T06:39:27.951Z,31.3
2023-04-11T06:41:32.986Z,31.32
2023-04-11T06:43:37.974Z,31.38
2023-04-11T06:45:43.053Z,31.38
2023-04-11T06:47:48.263Z,31.36
2023-04-11T06:49:53.425Z,31.36
2023-04-11T06:51:58.459Z,31.32
2023-04-11T06:54:03.549Z,31.36
2023-04-11T06:56:08.563Z,31.35
2023-04-11T06:58:13.627Z,31.4
2023-04-11T07:00:18.660Z,31.45
2023-04-11T07:02:24.055Z,31.44
2023-04-11T07:04:29.647Z,31.42
2023-04-11T07:06:34.730Z,31.43
2023-04-11T07:08:39.749Z,31.42
2023-04-11T07:10:44.732Z,31.44
2023-04-11T07:12:49.786Z,31.48
2023-04-11T07:14:54.764Z,31.49
2023-04-11T07:16:59.778Z,31.46
2023-04-11T07:19:04.890Z,31.48
2023-04-11T07:21:09.922Z,31.49
2023-04-11T07:23:14.954Z,31.5
2023-04-11T07:25:20.075Z,31.48
2023-04-11T07:27:25.122Z,31.46
2023-04-11T07:29:30.102Z,31.5
2023-04-11T07:31:35.332Z,31.55
2023-04-11T07:33:40.414Z,31.53
2023-04-11T07:35:45.567Z,31.56
2023-04-11T07:37:50.677Z,31.52
2023-04-11T07:39:55.651Z,31.52
2023-04-11T07:42:00.669Z,31.54
2023-04-11T07:44:05.802Z,31.55
2023-04-11T07:46:10.947Z,31.58
2023-04-11T07:48:15.991Z,31.6
2023-04-11T07:50:21.052Z,31.63
2023-04-11T07:52:26.135Z,31.67
2023-04-11T07:54:31.267Z,31.68
2023-04-11T07:56:36.297Z,31.72
2023-04-11T07:58:41.332Z,31.82
2023-04-11T08:00:46.435Z,31.82
2023-04-11T08:02:52.055Z,31.89
2023-04-11T08:04:57.641Z,31.89
2023-04-11T08:07:02.882Z,31.95
2023-04-11T08:09:08.021Z,31.98
2023-04-11T08:11:13.021Z,32.04
2023-04-11T08:13:18.046Z,32.12
2023-04-11T08:15:23.022Z,32.15
2023-04-11T08:17:31.225Z,32.16
2023-04-11T08:19:36.373Z,32.2
2023-04-11T08:21:41.384Z,32.19
2023-04-11T08:23:47.369Z,32.1
2023-04-11T08:25:52.442Z,32.15
2023-04-11T08:27:57.389Z,32.16
2023-04-11T08:30:02.425Z,32.23
2023-04-11T08:32:07.398Z,32.22
2023-04-11T08:34:12.434Z,32.26
2023-04-11T08:36:17.944Z,33.24
2023-04-11T08:38:23.009Z,33.03
2023-04-11T08:40:29.733Z,32.96
2023-04-11T08:42:34.718Z,33.17
2023-04-11T08:44:39.685Z,33.75
2023-04-11T08:46:44.822Z,34.02
2023-04-11T08:48:49.858Z,34.46
2023-04-11T08:50:54.881Z,34.17
2023-04-11T08:52:59.912Z,34.23
2023-04-11T08:55:04.904Z,34.21
2023-04-11T08:57:09.923Z,34.35
2023-04-11T08:59:14.920Z,34.38
2023-04-11T09:01:19.974Z,34.44
2023-04-11T09:03:25.505Z,34.31
2023-04-11T09:05:30.575Z,33.15
2023-04-11T09:07:35.548Z,32.49
2023-04-11T09:09:40.563Z,32.24
2023-04-11T09:11:45.557Z,31.99
2023-04-11T09:13:50.573Z,32.29
2023-04-11T09:15:55.849Z,31.96
2023-04-11T09:18:03.410Z,32.18
2023-04-11T09:20:08.424Z,32.2
2023-04-11T09:22:13.415Z,32.44
2023-04-11T09:24:18.391Z,33.61
2023-04-11T09:26:25.559Z,34.19
2023-04-11T09:28:30.506Z,34.27
2023-04-11T09:30:35.574Z,34.25
2023-04-11T09:32:40.692Z,35
2023-04-11T09:34:45.684Z,34.98
2023-04-11T09:36:50.675Z,34.95
2023-04-11T09:38:55.663Z,34.99
2023-04-11T09:41:00.774Z,35.08
2023-04-11T09:43:05.891Z,35.42
2023-04-11T09:45:10.903Z,35.56
2023-04-11T09:47:16.126Z,35.4
2023-04-11T09:49:21.129Z,35.81
2023-04-11T09:51:38.603Z,35.67
2023-04-11T09:53:43.710Z,35.69
2023-04-11T09:55:48.697Z,35.57
2023-04-11T09:57:53.746Z,35.48
2023-04-11T09:59:58.742Z,35.07
2023-04-11T10:02:04.090Z,34.99
2023-04-11T10:04:09.275Z,34.96
2023-04-11T10:06:14.286Z,35.51
2023-04-11T10:08:19.316Z,35.05
2023-04-11T10:10:24.361Z,34.9
2023-04-11T10:12:29.428Z,35.36
2023-04-11T10:14:34.392Z,35.25
2023-04-11T10:16:39.684Z,35.23
2023-04-11T10:18:44.713Z,35.13
2023-04-11T10:20:49.723Z,35.32
2023-04-11T10:22:54.710Z,35.14
2023-04-11T10:24:59.722Z,35.21
2023-04-11T10:27:04.815Z,35.25
2023-04-11T10:29:09.865Z,35.63
2023-04-11T10:31:15.114Z,35.67
2023-04-11T10:33:23.026Z,35.62
2023-04-11T10:35:28.142Z,35.67
2023-04-11T10:37:33.350Z,35.81
2023-04-11T10:39:38.374Z,35.79
2023-04-11T10:41:43.338Z,35.75
2023-04-11T10:43:48.447Z,35.83
2023-04-11T10:45:53.479Z,35.57
2023-04-11T10:47:58.791Z,35.45
2023-04-11T10:50:03.814Z,35.61
2023-04-11T10:52:08.735Z,35.63
2023-04-11T10:54:13.752Z,35.81
2023-04-11T10:56:19.090Z,35.5
2023-04-11T10:58:24.127Z,35.53
2023-04-11T11:00:29.494Z,35.36
2023-04-11T11:02:35.844Z,35.45
2023-04-11T11:04:41.583Z,35.75
2023-04-11T11:06:58.761Z,35.9
2023-04-11T11:09:03.864Z,35.78
2023-04-11T11:11:08.868Z,35.72
2023-04-11T11:13:13.881Z,35.86
2023-04-11T11:15:18.873Z,35.71
2023-04-11T11:17:24.052Z,35.22
2023-04-11T11:19:29.108Z,34.45
2023-04-11T11:21:34.293Z,34.58
2023-04-11T11:23:39.370Z,34.25
2023-04-11T11:25:44.373Z,34.38
2023-04-11T11:27:49.408Z,34.24
2023-04-11T11:29:55.086Z,34.44
2023-04-11T11:32:00.353Z,34.79
2023-04-11T11:34:25.518Z,35.02
2023-04-11T11:36:30.617Z,35.12
2023-04-11T11:38:35.650Z,35
2023-04-11T11:40:40.764Z,35.1
2023-04-11T11:42:45.856Z,35.23
2023-04-11T11:44:51.002Z,35.2
2023-04-11T11:46:55.977Z,35.38
2023-04-11T11:49:02.188Z,35.17
2023-04-11T11:51:07.535Z,35.62
2023-04-11T11:53:12.517Z,35.4
2023-04-11T11:55:17.554Z,35.27
2023-04-11T11:57:22.924Z,35.5
2023-04-11T11:59:28.046Z,35.42
2023-04-11T12:01:33.060Z,35.74
2023-04-11T12:03:38.482Z,35.72
2023-04-11T12:05:43.539Z,35.79
2023-04-11T12:07:48.520Z,35.64
2023-04-11T12:09:53.834Z,35.87
2023-04-11T12:11:58.888Z,35.58
2023-04-11T12:14:03.915Z,35.62
2023-04-11T12:16:09.229Z,35.59
2023-04-11T12:18:14.486Z,35.62
2023-04-11T12:20:19.699Z,35.89
2023-04-11T12:22:24.709Z,36.03
2023-04-11T12:24:29.762Z,35.86
2023-04-11T12:26:34.909Z,35.6
2023-04-11T12:28:40.101Z,35.5
2023-04-11T12:30:45.220Z,35.91
2023-04-11T12:32:50.723Z,35.93
2023-04-11T12:34:55.870Z,36.06
2023-04-11T12:37:00.873Z,35.84
2023-04-11T12:39:05.997Z,35.8
2023-04-11T12:41:34.064Z,36.15
2023-04-11T12:43:39.069Z,35.59
2023-04-11T12:45:44.101Z,35.86
2023-04-11T12:47:49.521Z,36
2023-04-11T12:49:54.660Z,36.08
2023-04-11T12:51:59.661Z,35.97
2023-04-11T12:54:04.679Z,36.05
2023-04-11T12:56:09.699Z,36.39
2023-04-11T12:58:14.779Z,36.3
2023-04-11T13:00:19.866Z,36.19
2023-04-11T13:02:25.497Z,36.04
2023-04-11T13:04:31.016Z,36.36
2023-04-11T13:06:36.096Z,36.32
2023-04-11T13:08:41.090Z,36.78
2023-04-11T13:10:46.102Z,36.58
2023-04-11T13:12:51.083Z,36.6
2023-04-11T13:14:56.132Z,36.68
2023-04-11T13:17:01.072Z,36.66
2023-04-11T13:19:06.102Z,36.66
2023-04-11T13:21:11.146Z,36.74
2023-04-11T13:23:18.972Z,36.34
2023-04-11T13:25:24.024Z,36.68
2023-04-11T13:27:29.147Z,36.74
2023-04-11T13:29:34.134Z,36.71
2023-04-11T13:31:39.317Z,36.46
2023-04-11T13:33:44.385Z,36.75
2023-04-11T13:35:49.399Z,36.92
2023-04-11T13:37:54.420Z,36.77
2023-04-11T13:39:59.457Z,36.64
2023-04-11T13:42:04.461Z,36.58
2023-04-11T13:44:09.562Z,36.78
2023-04-11T13:46:14.861Z,36.2
2023-04-11T13:48:19.956Z,35.94
2023-04-11T13:50:24.968Z,36.68
2023-04-11T13:52:29.933Z,36.57
2023-04-11T13:54:35.032Z,36.79
2023-04-11T13:56:40.598Z,36.71
2023-04-11T13:58:45.618Z,36.28
2023-04-11T14:00:50.845Z,36.8
2023-04-11T14:02:56.480Z,36.95
2023-04-11T14:05:01.798Z,36.92
2023-04-11T14:07:06.773Z,36.97
2023-04-11T14:09:11.755Z,37.54
2023-04-11T14:11:16.747Z,37.33
2023-04-11T14:13:21.794Z,37.3
2023-04-11T14:15:26.799Z,37.31
2023-04-11T14:17:31.959Z,37.37
2023-04-11T14:19:37.101Z,37.46
2023-04-11T14:21:42.290Z,37.75
2023-04-11T14:23:47.282Z,37.84
2023-04-11T14:25:52.297Z,37.1
2023-04-11T14:27:57.326Z,37.46
2023-04-11T14:30:02.393Z,37.36
2023-04-11T14:32:07.972Z,37.74
2023-04-11T14:34:13.028Z,37.91
2023-04-11T14:36:17.975Z,37.83
2023-04-11T14:38:22.990Z,37.6
2023-04-11T14:40:28.184Z,37.64
2023-04-11T14:42:33.181Z,37.4
2023-04-11T14:44:38.138Z,37.74
2023-04-11T14:46:43.425Z,37.73
2023-04-11T14:48:48.554Z,37.86
2023-04-11T14:50:53.580Z,37.88
2023-04-11T14:52:58.569Z,38
2023-04-11T14:55:03.620Z,37.88
2023-04-11T14:57:08.604Z,37.84
2023-04-11T14:59:13.728Z,38.09
2023-04-11T15:01:18.910Z,37.97
2023-04-11T15:03:24.531Z,38.01
2023-04-11T15:05:29.621Z,37.88
2023-04-11T15:07:34.674Z,37.98
2023-04-11T15:09:39.669Z,37.82
2023-04-11T15:11:44.669Z,38.14
2023-04-11T15:13:49.669Z,38.07
2023-04-11T15:15:54.889Z,38.43
2023-04-11T15:18:00.165Z,38.12
2023-04-11T15:20:05.498Z,38.02
2023-04-11T15:22:10.567Z,38.38
2023-04-11T15:24:15.537Z,38.36
2023-04-11T15:26:20.507Z,38.49
2023-04-11T15:28:25.558Z,38.35
2023-04-11T15:30:30.550Z,38.29
2023-04-11T15:32:35.772Z,38.21
2023-04-11T15:34:40.794Z,38.17
2023-04-11T15:36:45.754Z,38.13
2023-04-11T15:38:50.807Z,37.98
2023-04-11T15:40:55.866Z,37.86
2023-04-11T15:43:00.876Z,37.81
2023-04-11T15:45:05.925Z,37.83
2023-04-11T15:47:11.386Z,37.78
2023-04-11T15:49:16.522Z,37.76
2023-04-11T15:51:21.563Z,37.88
2023-04-11T15:53:26.576Z,38.12
2023-04-11T15:55:31.561Z,38.04
2023-04-11T15:57:36.571Z,37.7
2023-04-11T15:59:41.580Z,37.75
2023-04-11T16:01:46.834Z,37.89
2023-04-11T16:03:52.415Z,37.71
2023-04-11T16:05:57.530Z,37.7
2023-04-11T16:08:02.597Z,37.8
2023-04-11T16:10:07.771Z,37.87
2023-04-11T16:12:12.776Z,37.91
2023-04-11T16:14:17.792Z,37.96
2023-04-11T16:16:22.981Z,38.21
2023-04-11T16:18:27.996Z,38.42
2023-04-11T16:20:32.968Z,38.19
2023-04-11T16:22:37.913Z,38.22
2023-04-11T16:24:42.944Z,38.15
2023-04-11T16:26:48.093Z,38.02
2023-04-11T16:28:53.105Z,37.92
2023-04-11T16:30:59.661Z,37.79
2023-04-11T16:33:04.842Z,37.84
2023-04-11T16:35:10.494Z,38.22
2023-04-11T16:37:15.664Z,38.23
2023-04-11T16:39:20.664Z,38.11
2023-04-11T16:41:25.902Z,38.16
2023-04-11T16:43:31.061Z,38.07
2023-04-11T16:45:36.221Z,38.09
2023-04-11T16:47:41.401Z,38.03
2023-04-11T16:49:48.420Z,38.01
2023-04-11T16:51:53.441Z,37.89
2023-04-11T16:53:59.251Z,38.45
2023-04-11T16:56:04.295Z,38.28
2023-04-11T16:58:09.302Z,38.33
2023-04-11T17:00:14.312Z,38.57
2023-04-11T17:02:19.607Z,38.75
2023-04-11T17:04:25.268Z,39.26
2023-04-11T17:06:30.440Z,38.91
2023-04-11T17:08:35.461Z,39.26
2023-04-11T17:10:40.698Z,39.21
2023-04-11T17:12:45.651Z,39.22
2023-04-11T17:14:50.694Z,39.19
2023-04-11T17:16:55.868Z,39.17
2023-04-11T17:19:00.911Z,39.44
2023-04-11T17:21:06.023Z,39.43
2023-04-11T17:23:11.044Z,39.82
2023-04-11T17:25:16.146Z,39.84
2023-04-11T17:27:21.166Z,39.81
2023-04-11T17:29:26.237Z,39.72
2023-04-11T17:31:31.652Z,39.99
2023-04-11T17:33:36.799Z,39.99
2023-04-11T17:35:42.002Z,39.94
2023-04-11T17:37:47.081Z,39.84
2023-04-11T17:39:52.115Z,39.73
2023-04-11T17:41:57.144Z,39.73
2023-04-11T17:44:02.724Z,39.42
2023-04-11T17:46:07.946Z,39.41
2023-04-11T17:48:13.281Z,39.63
2023-04-11T17:50:18.345Z,39.69
2023-04-11T17:52:23.377Z,39.84
2023-04-11T17:54:31.276Z,39.69
2023-04-11T17:56:36.419Z,39.73
2023-04-11T17:58:41.487Z,39.52
2023-04-11T18:00:58.601Z,39.08
2023-04-11T18:03:04.018Z,39.05
2023-04-11T18:05:26.276Z,39.21
2023-04-11T18:07:31.373Z,39.56
2023-04-11T18:09:36.481Z,39.18
2023-04-11T18:11:41.515Z,38.98
2023-04-11T18:13:50.413Z,38.82
2023-04-11T18:15:55.943Z,38.56
2023-04-11T18:18:01.202Z,38.44
2023-04-11T18:20:06.348Z,38.13
2023-04-11T18:22:11.397Z,38.47
2023-04-11T18:24:16.387Z,38.41
2023-04-11T18:26:21.392Z,38.4
2023-04-11T18:28:26.443Z,38.39
2023-04-11T18:30:31.512Z,38.32
2023-04-11T18:32:50.754Z,38.13
2023-04-11T18:34:56.434Z,37.99
2023-04-11T18:37:01.616Z,37.74
2023-04-11T18:39:06.820Z,37.6
2023-04-11T18:41:12.335Z,37.52
2023-04-11T18:43:17.466Z,37.7
2023-04-11T18:45:22.714Z,38.3
2023-04-11T18:47:28.535Z,38.3
2023-04-11T18:49:34.289Z,38.2
2023-04-11T18:51:39.351Z,38.38
2023-04-11T18:53:44.379Z,38.43
2023-04-11T18:55:49.387Z,38.98
2023-04-11T18:58:02.935Z,38.73
2023-04-11T19:00:17.956Z,38.89
2023-04-11T19:02:24.265Z,39.01
2023-04-11T19:04:30.614Z,39.04
2023-04-11T19:06:35.761Z,38.93
2023-04-11T19:08:40.830Z,38.99
2023-04-11T19:10:46.014Z,38.92
2023-04-11T19:12:51.126Z,38.49
2023-04-11T19:14:58.536Z,38.78
2023-04-11T19:17:03.684Z,38.86
2023-04-11T19:19:08.766Z,38.65
2023-04-11T19:21:13.793Z,39.04
2023-04-11T19:23:18.828Z,39.01
2023-04-11T19:25:23.941Z,38.88
2023-04-11T19:27:29.037Z,38.72
2023-04-11T19:29:34.153Z,38.87
2023-04-11T19:31:39.431Z,38.92
2023-04-11T19:33:44.532Z,38.73
2023-04-11T19:35:49.687Z,38.78
2023-04-11T19:37:54.782Z,38.85
2023-04-11T19:39:59.838Z,38.97
2023-04-11T19:42:04.895Z,38.66
2023-04-11T19:44:09.921Z,38.76
2023-04-11T19:46:15.168Z,38.7
2023-04-11T19:48:20.263Z,39.03
2023-04-11T19:50:25.347Z,38.59
2023-04-11T19:52:30.399Z,38.52
2023-04-11T19:54:35.447Z,38.28
2023-04-11T19:56:40.435Z,38.64
2023-04-11T19:58:45.510Z,38.53
2023-04-11T20:00:50.670Z,38.53
2023-04-11T20:02:56.445Z,38.62
2023-04-11T20:05:01.731Z,38.63
2023-04-11T20:07:06.811Z,38.56
2023-04-11T20:09:12.013Z,38.51
2023-04-11T20:11:17.050Z,38.62
2023-04-11T20:13:22.170Z,38.76
2023-04-11T20:15:27.165Z,38.43
2023-04-11T20:17:32.455Z,38.88
2023-04-11T20:19:37.543Z,38.48
2023-04-11T20:21:42.584Z,38.75
2023-04-11T20:23:47.588Z,38.54
2023-04-11T20:25:52.652Z,38.69
2023-04-11T20:27:57.775Z,38.31
2023-04-11T20:30:02.800Z,38.26
2023-04-11T20:32:07.817Z,37.77
2023-04-11T20:34:13.372Z,37.87
2023-04-11T20:36:18.765Z,38.03
2023-04-11T20:38:23.802Z,36.46
2023-04-11T20:40:28.879Z,33.63
2023-04-11T20:42:33.900Z,32.96
2023-04-11T20:44:38.892Z,32.64
2023-04-11T20:46:44.139Z,32.18
2023-04-11T20:48:49.270Z,32.09
2023-04-11T20:50:54.346Z,31.87
2023-04-11T20:52:59.364Z,31.56
2023-04-11T20:55:04.391Z,31.52
2023-04-11T20:57:09.467Z,31.36
2023-04-11T20:59:14.581Z,31.28
2023-04-11T21:01:19.748Z,31.2
2023-04-11T21:03:25.314Z,31.04
2023-04-11T21:05:30.628Z,30.96
2023-04-11T21:07:35.654Z,30.89
2023-04-11T21:09:40.621Z,30.8
2023-04-11T21:11:45.656Z,30.77
2023-04-11T21:13:50.654Z,30.66
2023-04-11T21:15:55.777Z,30.56
2023-04-11T21:18:01.110Z,30.49
2023-04-11T21:20:06.144Z,30.4
2023-04-11T21:22:11.207Z,30.45
2023-04-11T21:24:16.275Z,30.49
2023-04-11T21:26:21.334Z,30.48
2023-04-11T21:28:26.483Z,30.45
2023-04-11T21:30:31.554Z,30.49
2023-04-11T21:32:36.703Z,30.42
2023-04-11T21:34:41.754Z,30.32
2023-04-11T21:36:46.808Z,30.29
2023-04-11T21:38:51.839Z,30.24
2023-04-11T21:40:56.823Z,30.19
2023-04-11T21:43:01.842Z,30.15
2023-04-11T21:45:06.914Z,30.07
2023-04-11T21:47:11.915Z,30.1
2023-04-11T21:49:16.879Z,30.39
2023-04-11T21:51:21.916Z,30.36
2023-04-11T21:53:27.193Z,30.27
2023-04-11T21:55:32.275Z,30.29
2023-04-11T21:57:37.289Z,30.22
2023-04-11T21:59:42.282Z,30.06
2023-04-11T22:01:47.913Z,30.06
2023-04-11T22:03:53.778Z,30.11
2023-04-11T22:05:58.855Z,30.08
2023-04-11T22:08:03.854Z,30.01
2023-04-11T22:10:08.903Z,29.92
2023-04-11T22:12:13.953Z,29.81
2023-04-11T22:14:18.967Z,29.81
2023-04-11T22:16:24.404Z,29.78
2023-04-11T22:18:29.462Z,29.74
2023-04-11T22:20:34.442Z,29.74
2023-04-11T22:22:39.474Z,29.6
2023-04-11T22:24:44.498Z,29.68
2023-04-11T22:26:49.498Z,29.71
2023-04-11T22:28:54.530Z,29.68
2023-04-11T22:30:59.582Z,29.6
2023-04-11T22:33:04.794Z,29.51
2023-04-11T22:35:09.910Z,29.54
2023-04-11T22:37:14.929Z,29.41
2023-04-11T22:39:20.049Z,29.44
2023-04-11T22:41:25.017Z,29.47
2023-04-11T22:43:29.989Z,29.48
2023-04-11T22:45:35.117Z,29.46
2023-04-11T22:47:40.357Z,29.37
2023-04-11T22:49:45.537Z,29.41
2023-04-11T22:51:50.564Z,29.39
2023-04-11T22:53:55.787Z,29.35
2023-04-11T22:56:00.978Z,29.54
2023-04-11T22:58:06.000Z,29.45
2023-04-11T23:00:11.178Z,29.47
2023-04-11T23:02:16.644Z,29.46
2023-04-11T23:04:22.266Z,29.38
2023-04-11T23:06:27.407Z,29.27
2023-04-11T23:08:32.417Z,29.28
2023-04-11T23:10:37.489Z,29.3
2023-04-11T23:12:42.490Z,29.22
2023-04-11T23:14:47.497Z,29.18
2023-04-11T23:16:52.810Z,29.19
2023-04-11T23:18:57.919Z,29.18
2023-04-11T23:21:03.144Z,29.21
2023-04-11T23:23:08.129Z,29.16
2023-04-11T23:25:13.183Z,29.07
2023-04-11T23:27:18.217Z,29.09
2023-04-11T23:29:23.425Z,29.03
2023-04-11T23:31:28.788Z,29.03
2023-04-11T23:33:33.856Z,29.01
2023-04-11T23:35:38.955Z,29.03
2023-04-11T23:37:44.089Z,29.11
2023-04-11T23:39:49.085Z,29.1
2023-04-11T23:41:54.220Z,29.14
2023-04-11T23:43:59.900Z,29.07
2023-04-11T23:46:05.231Z,29.06
2023-04-11T23:48:10.449Z,29.01
2023-04-11T23:50:15.605Z,29.03
2023-04-11T23:52:20.608Z,29.03
2023-04-11T23:54:26.066Z,28.98
2023-04-11T23:56:31.827Z,29.05
2023-04-11T23:58:36.848Z,29
